sensor_id;sensor_type;location;lat;lon;timestamp;P1;durP1;ratioP1;P2;durP2;ratioP2
23658;SDS011;12006;42.666;23.326;2024-02-23T00:01:36;6.23;;;4.60;;
23658;SDS011;12006;42.666;23.326;2024-02-23T00:05:00;7.30;;;5.47;;
23658;SDS011;12006;42.666;23.326;2024-02-23T00:08:24;11.40;;;6.20;;
23658;SDS011;12006;42.666;23.326;2024-02-23T00:11:49;11.13;;;6.23;;
23658;SDS011;12006;42.666;23.326;2024-02-23T00:15:13;8.70;;;5.27;;
23658;SDS011;12006;42.666;23.326;2024-02-23T00:18:37;6.23;;;5.00;;
23658;SDS011;12006;42.666;23.326;2024-02-23T00:22:01;7.37;;;5.10;;
23658;SDS011;12006;42.666;23.326;2024-02-23T00:25:26;6.87;;;5.37;;
23658;SDS011;12006;42.666;23.326;2024-02-23T00:28:50;7.57;;;5.40;;
23658;SDS011;12006;42.666;23.326;2024-02-23T00:32:14;6.80;;;4.50;;
23658;SDS011;12006;42.666;23.326;2024-02-23T00:35:38;6.87;;;4.73;;
23658;SDS011;12006;42.666;23.326;2024-02-23T00:39:03;9.83;;;5.60;;
23658;SDS011;12006;42.666;23.326;2024-02-23T00:42:29;6.17;;;5.00;;
23658;SDS011;12006;42.666;23.326;2024-02-23T00:45:54;8.03;;;5.20;;
23658;SDS011;12006;42.666;23.326;2024-02-23T00:49:18;10.00;;;5.70;;
23658;SDS011;12006;42.666;23.326;2024-02-23T00:52:42;8.70;;;5.63;;
23658;SDS011;12006;42.666;23.326;2024-02-23T00:56:07;9.77;;;4.83;;
23658;SDS011;12006;42.666;23.326;2024-02-23T00:59:31;7.43;;;5.10;;
23658;SDS011;12006;42.666;23.326;2024-02-23T01:02:54;6.57;;;4.07;;
23658;SDS011;12006;42.666;23.326;2024-02-23T01:06:19;7.60;;;5.27;;
23658;SDS011;12006;42.666;23.326;2024-02-23T01:09:42;8.30;;;5.37;;
23658;SDS011;12006;42.666;23.326;2024-02-23T01:13:06;6.93;;;4.20;;
23658;SDS011;12006;42.666;23.326;2024-02-23T01:16:31;7.13;;;4.60;;
23658;SDS011;12006;42.666;23.326;2024-02-23T01:19:55;8.07;;;5.33;;
23658;SDS011;12006;42.666;23.326;2024-02-23T01:23:21;6.57;;;4.77;;
23658;SDS011;12006;42.666;23.326;2024-02-23T01:26:44;7.33;;;4.97;;
23658;SDS011;12006;42.666;23.326;2024-02-23T01:30:11;7.50;;;5.20;;
23658;SDS011;12006;42.666;23.326;2024-02-23T01:33:36;6.70;;;5.07;;
23658;SDS011;12006;42.666;23.326;2024-02-23T01:37:00;5.90;;;4.33;;
23658;SDS011;12006;42.666;23.326;2024-02-23T01:40:24;5.00;;;4.33;;
23658;SDS011;12006;42.666;23.326;2024-02-23T01:43:48;5.93;;;4.47;;
23658;SDS011;12006;42.666;23.326;2024-02-23T01:47:12;5.77;;;4.40;;
23658;SDS011;12006;42.666;23.326;2024-02-23T01:50:36;7.67;;;5.23;;
23658;SDS011;12006;42.666;23.326;2024-02-23T01:54:01;6.10;;;4.47;;
23658;SDS011;12006;42.666;23.326;2024-02-23T01:57:25;6.57;;;4.37;;
23658;SDS011;12006;42.666;23.326;2024-02-23T02:00:49;7.80;;;4.93;;
23658;SDS011;12006;42.666;23.326;2024-02-23T02:04:13;5.93;;;4.53;;
23658;SDS011;12006;42.666;23.326;2024-02-23T02:07:37;7.67;;;4.00;;
23658;SDS011;12006;42.666;23.326;2024-02-23T02:11:03;5.23;;;4.20;;
23658;SDS011;12006;42.666;23.326;2024-02-23T02:14:27;5.83;;;4.00;;
23658;SDS011;12006;42.666;23.326;2024-02-23T02:17:51;7.80;;;4.70;;
23658;SDS011;12006;42.666;23.326;2024-02-23T02:21:15;5.80;;;4.73;;
23658;SDS011;12006;42.666;23.326;2024-02-23T02:24:39;6.57;;;5.17;;
23658;SDS011;12006;42.666;23.326;2024-02-23T02:28:05;6.50;;;4.57;;
23658;SDS011;12006;42.666;23.326;2024-02-23T02:31:29;7.40;;;4.90;;
23658;SDS011;12006;42.666;23.326;2024-02-23T02:34:53;6.33;;;4.27;;
23658;SDS011;12006;42.666;23.326;2024-02-23T02:38:17;7.03;;;4.60;;
23658;SDS011;12006;42.666;23.326;2024-02-23T02:41:41;5.93;;;4.67;;
23658;SDS011;12006;42.666;23.326;2024-02-23T02:45:05;7.77;;;4.83;;
23658;SDS011;12006;42.666;23.326;2024-02-23T02:48:29;6.73;;;4.60;;
23658;SDS011;12006;42.666;23.326;2024-02-23T02:51:53;7.87;;;4.87;;
23658;SDS011;12006;42.666;23.326;2024-02-23T02:55:16;6.07;;;4.47;;
23658;SDS011;12006;42.666;23.326;2024-02-23T02:58:40;7.80;;;4.80;;
23658;SDS011;12006;42.666;23.326;2024-02-23T03:02:04;7.37;;;4.97;;
23658;SDS011;12006;42.666;23.326;2024-02-23T03:05:28;5.50;;;4.70;;
23658;SDS011;12006;42.666;23.326;2024-02-23T03:08:52;6.43;;;4.70;;
23658;SDS011;12006;42.666;23.326;2024-02-23T03:12:16;7.33;;;4.87;;
23658;SDS011;12006;42.666;23.326;2024-02-23T03:15:40;7.93;;;4.97;;
23658;SDS011;12006;42.666;23.326;2024-02-23T03:19:04;6.90;;;4.60;;
23658;SDS011;12006;42.666;23.326;2024-02-23T03:22:30;7.00;;;4.70;;
23658;SDS011;12006;42.666;23.326;2024-02-23T03:25:54;10.53;;;5.50;;
23658;SDS011;12006;42.666;23.326;2024-02-23T03:29:18;7.60;;;5.40;;
23658;SDS011;12006;42.666;23.326;2024-02-23T03:32:42;6.30;;;5.27;;
23658;SDS011;12006;42.666;23.326;2024-02-23T03:36:06;7.47;;;5.80;;
23658;SDS011;12006;42.666;23.326;2024-02-23T03:39:30;10.20;;;5.53;;
23658;SDS011;12006;42.666;23.326;2024-02-23T03:42:54;8.00;;;5.50;;
23658;SDS011;12006;42.666;23.326;2024-02-23T03:46:18;6.17;;;4.97;;
23658;SDS011;12006;42.666;23.326;2024-02-23T03:49:42;5.50;;;4.63;;
23658;SDS011;12006;42.666;23.326;2024-02-23T03:53:06;6.53;;;5.47;;
23658;SDS011;12006;42.666;23.326;2024-02-23T03:56:37;7.40;;;5.40;;
23658;SDS011;12006;42.666;23.326;2024-02-23T04:00:02;6.57;;;4.70;;
23658;SDS011;12006;42.666;23.326;2024-02-23T04:03:26;7.40;;;4.80;;
23658;SDS011;12006;42.666;23.326;2024-02-23T04:06:49;5.97;;;4.57;;
23658;SDS011;12006;42.666;23.326;2024-02-23T04:10:13;8.37;;;5.57;;
23658;SDS011;12006;42.666;23.326;2024-02-23T04:13:38;6.80;;;5.27;;
23658;SDS011;12006;42.666;23.326;2024-02-23T04:17:05;7.20;;;5.40;;
23658;SDS011;12006;42.666;23.326;2024-02-23T04:20:29;6.93;;;5.47;;
23658;SDS011;12006;42.666;23.326;2024-02-23T04:23:52;7.70;;;5.47;;
23658;SDS011;12006;42.666;23.326;2024-02-23T04:27:16;8.33;;;5.43;;
23658;SDS011;12006;42.666;23.326;2024-02-23T04:30:40;7.07;;;5.27;;
23658;SDS011;12006;42.666;23.326;2024-02-23T04:34:04;7.00;;;5.07;;
23658;SDS011;12006;42.666;23.326;2024-02-23T04:37:28;7.30;;;4.93;;
23658;SDS011;12006;42.666;23.326;2024-02-23T04:40:52;8.17;;;5.53;;
23658;SDS011;12006;42.666;23.326;2024-02-23T04:44:16;8.30;;;5.07;;
23658;SDS011;12006;42.666;23.326;2024-02-23T04:47:40;7.10;;;5.77;;
23658;SDS011;12006;42.666;23.326;2024-02-23T04:51:03;7.83;;;5.43;;
23658;SDS011;12006;42.666;23.326;2024-02-23T04:54:28;12.03;;;7.53;;
23658;SDS011;12006;42.666;23.326;2024-02-23T04:57:51;8.60;;;5.90;;
23658;SDS011;12006;42.666;23.326;2024-02-23T05:01:16;12.00;;;6.83;;
23658;SDS011;12006;42.666;23.326;2024-02-23T05:04:41;7.50;;;5.93;;
23658;SDS011;12006;42.666;23.326;2024-02-23T05:08:05;11.40;;;6.50;;
23658;SDS011;12006;42.666;23.326;2024-02-23T05:11:28;12.80;;;6.30;;
23658;SDS011;12006;42.666;23.326;2024-02-23T05:14:52;10.07;;;5.70;;
23658;SDS011;12006;42.666;23.326;2024-02-23T05:18:16;10.60;;;6.73;;
23658;SDS011;12006;42.666;23.326;2024-02-23T05:21:40;7.47;;;5.33;;
23658;SDS011;12006;42.666;23.326;2024-02-23T05:25:05;7.30;;;5.77;;
23658;SDS011;12006;42.666;23.326;2024-02-23T05:28:29;10.17;;;5.90;;
23658;SDS011;12006;42.666;23.326;2024-02-23T05:31:53;10.70;;;7.27;;
23658;SDS011;12006;42.666;23.326;2024-02-23T05:35:17;7.47;;;6.27;;
23658;SDS011;12006;42.666;23.326;2024-02-23T05:38:41;9.00;;;5.80;;
23658;SDS011;12006;42.666;23.326;2024-02-23T05:42:05;9.50;;;6.27;;
23658;SDS011;12006;42.666;23.326;2024-02-23T05:45:29;14.73;;;6.93;;
23658;SDS011;12006;42.666;23.326;2024-02-23T05:48:53;11.57;;;7.30;;
23658;SDS011;12006;42.666;23.326;2024-02-23T05:52:17;11.60;;;6.20;;
23658;SDS011;12006;42.666;23.326;2024-02-23T05:55:41;9.07;;;5.93;;
23658;SDS011;12006;42.666;23.326;2024-02-23T05:59:04;9.07;;;6.40;;
23658;SDS011;12006;42.666;23.326;2024-02-23T06:02:29;9.00;;;6.23;;
23658;SDS011;12006;42.666;23.326;2024-02-23T06:05:53;9.00;;;6.97;;
23658;SDS011;12006;42.666;23.326;2024-02-23T06:09:17;8.33;;;6.80;;
23658;SDS011;12006;42.666;23.326;2024-02-23T06:12:41;12.43;;;6.63;;
23658;SDS011;12006;42.666;23.326;2024-02-23T06:16:05;11.13;;;7.00;;
23658;SDS011;12006;42.666;23.326;2024-02-23T06:19:29;10.23;;;7.07;;
23658;SDS011;12006;42.666;23.326;2024-02-23T06:22:53;10.40;;;6.40;;
23658;SDS011;12006;42.666;23.326;2024-02-23T06:26:17;10.20;;;7.73;;
23658;SDS011;12006;42.666;23.326;2024-02-23T06:29:40;12.37;;;7.37;;
23658;SDS011;12006;42.666;23.326;2024-02-23T06:33:05;10.33;;;7.63;;
23658;SDS011;12006;42.666;23.326;2024-02-23T06:36:29;8.70;;;7.17;;
23658;SDS011;12006;42.666;23.326;2024-02-23T06:39:53;10.43;;;7.00;;
23658;SDS011;12006;42.666;23.326;2024-02-23T06:43:18;9.10;;;6.10;;
23658;SDS011;12006;42.666;23.326;2024-02-23T06:46:42;9.50;;;7.13;;
23658;SDS011;12006;42.666;23.326;2024-02-23T06:50:07;8.97;;;6.63;;
23658;SDS011;12006;42.666;23.326;2024-02-23T06:53:34;10.33;;;7.17;;
23658;SDS011;12006;42.666;23.326;2024-02-23T06:56:58;8.97;;;6.67;;
23658;SDS011;12006;42.666;23.326;2024-02-23T07:00:22;11.93;;;7.50;;
23658;SDS011;12006;42.666;23.326;2024-02-23T07:03:46;8.40;;;6.63;;
23658;SDS011;12006;42.666;23.326;2024-02-23T07:07:10;9.17;;;6.97;;
23658;SDS011;12006;42.666;23.326;2024-02-23T07:10:34;8.73;;;7.00;;
23658;SDS011;12006;42.666;23.326;2024-02-23T07:13:58;8.97;;;7.00;;
23658;SDS011;12006;42.666;23.326;2024-02-23T07:17:22;11.53;;;6.47;;
23658;SDS011;12006;42.666;23.326;2024-02-23T07:20:46;9.30;;;6.63;;
23658;SDS011;12006;42.666;23.326;2024-02-23T07:24:10;10.87;;;7.07;;
23658;SDS011;12006;42.666;23.326;2024-02-23T07:27:34;11.27;;;6.67;;
23658;SDS011;12006;42.666;23.326;2024-02-23T07:30:58;9.30;;;6.90;;
23658;SDS011;12006;42.666;23.326;2024-02-23T07:34:22;10.47;;;7.20;;
23658;SDS011;12006;42.666;23.326;2024-02-23T07:37:46;12.33;;;8.13;;
23658;SDS011;12006;42.666;23.326;2024-02-23T07:41:10;12.23;;;7.60;;
23658;SDS011;12006;42.666;23.326;2024-02-23T07:44:35;10.00;;;7.67;;
23658;SDS011;12006;42.666;23.326;2024-02-23T07:48:00;12.27;;;7.37;;
23658;SDS011;12006;42.666;23.326;2024-02-23T07:51:24;13.00;;;7.37;;
23658;SDS011;12006;42.666;23.326;2024-02-23T07:54:54;10.57;;;6.70;;
23658;SDS011;12006;42.666;23.326;2024-02-23T07:58:18;11.50;;;7.17;;
23658;SDS011;12006;42.666;23.326;2024-02-23T08:01:41;9.30;;;6.77;;
23658;SDS011;12006;42.666;23.326;2024-02-23T08:05:06;9.33;;;6.90;;
23658;SDS011;12006;42.666;23.326;2024-02-23T08:08:30;11.33;;;7.63;;
23658;SDS011;12006;42.666;23.326;2024-02-23T08:11:54;10.67;;;6.57;;
23658;SDS011;12006;42.666;23.326;2024-02-23T08:15:18;9.03;;;6.40;;
23658;SDS011;12006;42.666;23.326;2024-02-23T08:18:42;12.13;;;7.27;;
23658;SDS011;12006;42.666;23.326;2024-02-23T08:22:07;10.97;;;7.63;;
23658;SDS011;12006;42.666;23.326;2024-02-23T08:25:30;9.27;;;6.97;;
23658;SDS011;12006;42.666;23.326;2024-02-23T08:28:54;9.70;;;6.73;;
23658;SDS011;12006;42.666;23.326;2024-02-23T08:32:18;10.40;;;7.27;;
23658;SDS011;12006;42.666;23.326;2024-02-23T08:35:42;10.07;;;6.67;;
23658;SDS011;12006;42.666;23.326;2024-02-23T08:39:06;10.33;;;5.97;;
23658;SDS011;12006;42.666;23.326;2024-02-23T08:42:31;8.37;;;5.63;;
23658;SDS011;12006;42.666;23.326;2024-02-23T08:45:55;8.07;;;6.03;;
23658;SDS011;12006;42.666;23.326;2024-02-23T08:49:19;9.87;;;6.80;;
23658;SDS011;12006;42.666;23.326;2024-02-23T08:52:43;9.70;;;6.63;;
23658;SDS011;12006;42.666;23.326;2024-02-23T08:56:08;8.33;;;6.80;;
23658;SDS011;12006;42.666;23.326;2024-02-23T08:59:32;13.47;;;6.90;;
23658;SDS011;12006;42.666;23.326;2024-02-23T09:02:55;10.70;;;6.50;;
23658;SDS011;12006;42.666;23.326;2024-02-23T09:06:19;8.90;;;6.37;;
23658;SDS011;12006;42.666;23.326;2024-02-23T09:09:46;8.23;;;5.77;;
23658;SDS011;12006;42.666;23.326;2024-02-23T09:13:10;4.53;;;3.93;;
23658;SDS011;12006;42.666;23.326;2024-02-23T09:16:34;5.63;;;4.47;;
23658;SDS011;12006;42.666;23.326;2024-02-23T09:19:58;7.83;;;6.07;;
23658;SDS011;12006;42.666;23.326;2024-02-23T09:23:22;6.87;;;4.80;;
23658;SDS011;12006;42.666;23.326;2024-02-23T09:26:46;6.80;;;4.80;;
23658;SDS011;12006;42.666;23.326;2024-02-23T09:30:11;7.53;;;5.00;;
23658;SDS011;12006;42.666;23.326;2024-02-23T09:33:35;6.80;;;5.03;;
23658;SDS011;12006;42.666;23.326;2024-02-23T09:36:59;7.13;;;5.07;;
23658;SDS011;12006;42.666;23.326;2024-02-23T09:40:23;5.70;;;4.50;;
23658;SDS011;12006;42.666;23.326;2024-02-23T09:43:48;5.93;;;5.30;;
23658;SDS011;12006;42.666;23.326;2024-02-23T09:47:15;3.57;;;2.63;;
23658;SDS011;12006;42.666;23.326;2024-02-23T09:50:43;4.88;;;3.42;;
23658;SDS011;12006;42.666;23.326;2024-02-23T09:54:08;5.82;;;4.10;;
23658;SDS011;12006;42.666;23.326;2024-02-23T09:57:32;4.18;;;3.33;;
23658;SDS011;12006;42.666;23.326;2024-02-23T10:01:04;4.28;;;3.88;;
23658;SDS011;12006;42.666;23.326;2024-02-23T10:04:35;4.03;;;3.58;;
23658;SDS011;12006;42.666;23.326;2024-02-23T10:07:59;3.53;;;2.90;;
23658;SDS011;12006;42.666;23.326;2024-02-23T10:11:23;3.70;;;2.22;;
23658;SDS011;12006;42.666;23.326;2024-02-23T10:14:47;2.45;;;2.20;;
23658;SDS011;12006;42.666;23.326;2024-02-23T10:18:15;2.13;;;1.80;;
23658;SDS011;12006;42.666;23.326;2024-02-23T10:21:39;1.40;;;1.20;;
23658;SDS011;12006;42.666;23.326;2024-02-23T10:25:02;3.88;;;1.98;;
23658;SDS011;12006;42.666;23.326;2024-02-23T10:28:29;2.08;;;1.88;;
23658;SDS011;12006;42.666;23.326;2024-02-23T10:31:53;2.08;;;1.85;;
23658;SDS011;12006;42.666;23.326;2024-02-23T10:35:22;2.30;;;1.70;;
23658;SDS011;12006;42.666;23.326;2024-02-23T10:38:47;1.77;;;1.55;;
23658;SDS011;12006;42.666;23.326;2024-02-23T10:42:13;2.42;;;1.90;;
23658;SDS011;12006;42.666;23.326;2024-02-23T10:45:44;1.92;;;1.65;;
23658;SDS011;12006;42.666;23.326;2024-02-23T10:49:09;2.13;;;1.92;;
23658;SDS011;12006;42.666;23.326;2024-02-23T10:52:34;2.08;;;1.80;;
23658;SDS011;12006;42.666;23.326;2024-02-23T10:56:00;1.90;;;1.60;;
23658;SDS011;12006;42.666;23.326;2024-02-23T10:59:24;2.28;;;1.80;;
23658;SDS011;12006;42.666;23.326;2024-02-23T11:02:50;3.10;;;2.33;;
23658;SDS011;12006;42.666;23.326;2024-02-23T11:06:16;1.60;;;1.50;;
23658;SDS011;12006;42.666;23.326;2024-02-23T11:09:40;1.90;;;1.33;;
23658;SDS011;12006;42.666;23.326;2024-02-23T11:13:08;1.80;;;1.70;;
23658;SDS011;12006;42.666;23.326;2024-02-23T11:16:33;3.15;;;1.63;;
23658;SDS011;12006;42.666;23.326;2024-02-23T11:20:04;1.88;;;1.60;;
23658;SDS011;12006;42.666;23.326;2024-02-23T11:23:42;1.80;;;1.70;;
23658;SDS011;12006;42.666;23.326;2024-02-23T11:27:13;1.45;;;1.35;;
23658;SDS011;12006;42.666;23.326;2024-02-23T11:30:49;3.83;;;2.35;;
23658;SDS011;12006;42.666;23.326;2024-02-23T11:34:21;1.45;;;1.30;;
23658;SDS011;12006;42.666;23.326;2024-02-23T11:37:54;2.03;;;1.73;;
23658;SDS011;12006;42.666;23.326;2024-02-23T11:41:21;1.70;;;1.60;;
23658;SDS011;12006;42.666;23.326;2024-02-23T11:44:45;1.38;;;1.27;;
23658;SDS011;12006;42.666;23.326;2024-02-23T11:48:11;2.10;;;1.90;;
23658;SDS011;12006;42.666;23.326;2024-02-23T11:51:35;1.50;;;1.40;;
23658;SDS011;12006;42.666;23.326;2024-02-23T11:54:59;2.22;;;1.63;;
23658;SDS011;12006;42.666;23.326;2024-02-23T11:58:23;1.40;;;1.30;;
23658;SDS011;12006;42.666;23.326;2024-02-23T12:01:48;1.83;;;1.63;;
23658;SDS011;12006;42.666;23.326;2024-02-23T12:05:14;1.52;;;1.40;;
23658;SDS011;12006;42.666;23.326;2024-02-23T12:08:40;1.90;;;1.38;;
23658;SDS011;12006;42.666;23.326;2024-02-23T12:12:06;1.10;;;1.00;;
23658;SDS011;12006;42.666;23.326;2024-02-23T12:15:30;1.73;;;1.50;;
23658;SDS011;12006;42.666;23.326;2024-02-23T12:18:54;1.33;;;1.23;;
23658;SDS011;12006;42.666;23.326;2024-02-23T12:22:25;1.40;;;1.30;;
23658;SDS011;12006;42.666;23.326;2024-02-23T12:26:07;1.63;;;1.42;;
23658;SDS011;12006;42.666;23.326;2024-02-23T12:29:31;2.60;;;1.60;;
23658;SDS011;12006;42.666;23.326;2024-02-23T12:33:03;1.70;;;1.60;;
23658;SDS011;12006;42.666;23.326;2024-02-23T12:36:27;1.52;;;1.25;;
23658;SDS011;12006;42.666;23.326;2024-02-23T12:39:52;2.20;;;1.45;;
23658;SDS011;12006;42.666;23.326;2024-02-23T12:43:16;1.98;;;1.15;;
23658;SDS011;12006;42.666;23.326;2024-02-23T12:46:40;1.55;;;1.45;;
23658;SDS011;12006;42.666;23.326;2024-02-23T12:50:04;1.83;;;1.40;;
23658;SDS011;12006;42.666;23.326;2024-02-23T12:53:35;1.90;;;1.35;;
23658;SDS011;12006;42.666;23.326;2024-02-23T12:56:59;1.25;;;1.15;;
23658;SDS011;12006;42.666;23.326;2024-02-23T13:00:23;1.90;;;1.80;;
23658;SDS011;12006;42.666;23.326;2024-02-23T13:03:47;1.27;;;1.10;;
23658;SDS011;12006;42.666;23.326;2024-02-23T13:07:14;1.50;;;1.40;;
23658;SDS011;12006;42.666;23.326;2024-02-23T13:10:38;1.58;;;1.23;;
23658;SDS011;12006;42.666;23.326;2024-02-23T13:14:03;2.67;;;1.67;;
23658;SDS011;12006;42.666;23.326;2024-02-23T13:17:27;1.63;;;1.40;;
23658;SDS011;12006;42.666;23.326;2024-02-23T13:20:51;1.40;;;1.30;;
23658;SDS011;12006;42.666;23.326;2024-02-23T13:24:15;1.10;;;1.00;;
23658;SDS011;12006;42.666;23.326;2024-02-23T13:27:39;2.03;;;1.48;;
23658;SDS011;12006;42.666;23.326;2024-02-23T13:31:03;1.65;;;1.55;;
23658;SDS011;12006;42.666;23.326;2024-02-23T13:34:27;1.30;;;1.10;;
23658;SDS011;12006;42.666;23.326;2024-02-23T13:37:51;1.98;;;1.50;;
23658;SDS011;12006;42.666;23.326;2024-02-23T13:41:16;2.72;;;1.42;;
23658;SDS011;12006;42.666;23.326;2024-02-23T13:44:40;1.73;;;1.42;;
23658;SDS011;12006;42.666;23.326;2024-02-23T13:48:13;2.25;;;1.27;;
23658;SDS011;12006;42.666;23.326;2024-02-23T13:51:38;1.20;;;1.10;;
23658;SDS011;12006;42.666;23.326;2024-02-23T13:55:02;2.22;;;1.15;;
23658;SDS011;12006;42.666;23.326;2024-02-23T13:58:26;5.40;;;3.80;;
23658;SDS011;12006;42.666;23.326;2024-02-23T14:01:50;2.35;;;1.63;;
23658;SDS011;12006;42.666;23.326;2024-02-23T14:05:15;1.70;;;1.60;;
23658;SDS011;12006;42.666;23.326;2024-02-23T14:08:39;4.22;;;3.28;;
23658;SDS011;12006;42.666;23.326;2024-02-23T14:12:02;2.60;;;2.40;;
23658;SDS011;12006;42.666;23.326;2024-02-23T14:15:26;2.40;;;1.80;;
23658;SDS011;12006;42.666;23.326;2024-02-23T14:18:50;1.52;;;1.42;;
23658;SDS011;12006;42.666;23.326;2024-02-23T14:22:15;1.50;;;1.40;;
23658;SDS011;12006;42.666;23.326;2024-02-23T14:25:39;1.75;;;1.35;;
23658;SDS011;12006;42.666;23.326;2024-02-23T14:29:03;4.28;;;1.80;;
23658;SDS011;12006;42.666;23.326;2024-02-23T14:32:27;1.73;;;1.63;;
23658;SDS011;12006;42.666;23.326;2024-02-23T14:35:51;1.42;;;1.33;;
23658;SDS011;12006;42.666;23.326;2024-02-23T14:39:15;1.85;;;1.35;;
23658;SDS011;12006;42.666;23.326;2024-02-23T14:42:40;1.58;;;1.45;;
23658;SDS011;12006;42.666;23.326;2024-02-23T14:46:04;2.17;;;1.80;;
23658;SDS011;12006;42.666;23.326;2024-02-23T14:49:28;3.28;;;1.80;;
23658;SDS011;12006;42.666;23.326;2024-02-23T14:52:52;2.50;;;1.58;;
23658;SDS011;12006;42.666;23.326;2024-02-23T14:56:16;1.85;;;1.40;;
23658;SDS011;12006;42.666;23.326;2024-02-23T14:59:40;2.20;;;1.60;;
23658;SDS011;12006;42.666;23.326;2024-02-23T15:03:04;1.73;;;1.38;;
23658;SDS011;12006;42.666;23.326;2024-02-23T15:06:29;2.85;;;2.03;;
23658;SDS011;12006;42.666;23.326;2024-02-23T15:09:53;2.28;;;2.08;;
23658;SDS011;12006;42.666;23.326;2024-02-23T15:13:17;1.65;;;1.55;;
23658;SDS011;12006;42.666;23.326;2024-02-23T15:16:41;2.05;;;1.90;;
23658;SDS011;12006;42.666;23.326;2024-02-23T15:20:07;1.88;;;1.70;;
23658;SDS011;12006;42.666;23.326;2024-02-23T15:23:31;1.63;;;1.42;;
23658;SDS011;12006;42.666;23.326;2024-02-23T15:26:55;2.03;;;1.50;;
23658;SDS011;12006;42.666;23.326;2024-02-23T15:30:22;1.95;;;1.50;;
23658;SDS011;12006;42.666;23.326;2024-02-23T15:33:47;1.48;;;1.38;;
23658;SDS011;12006;42.666;23.326;2024-02-23T15:37:11;1.85;;;1.65;;
23658;SDS011;12006;42.666;23.326;2024-02-23T15:40:35;2.58;;;2.08;;
23658;SDS011;12006;42.666;23.326;2024-02-23T15:44:02;1.73;;;1.52;;
23658;SDS011;12006;42.666;23.326;2024-02-23T15:47:26;3.15;;;2.17;;
23658;SDS011;12006;42.666;23.326;2024-02-23T15:50:51;2.03;;;1.80;;
23658;SDS011;12006;42.666;23.326;2024-02-23T15:54:15;1.88;;;1.75;;
23658;SDS011;12006;42.666;23.326;2024-02-23T15:57:39;2.17;;;1.98;;
23658;SDS011;12006;42.666;23.326;2024-02-23T16:01:03;2.65;;;2.15;;
23658;SDS011;12006;42.666;23.326;2024-02-23T16:04:27;2.55;;;1.98;;
23658;SDS011;12006;42.666;23.326;2024-02-23T16:07:51;2.38;;;2.17;;
23658;SDS011;12006;42.666;23.326;2024-02-23T16:11:15;3.13;;;2.20;;
23658;SDS011;12006;42.666;23.326;2024-02-23T16:14:39;2.92;;;2.20;;
23658;SDS011;12006;42.666;23.326;2024-02-23T16:18:03;2.00;;;1.80;;
23658;SDS011;12006;42.666;23.326;2024-02-23T16:21:28;2.95;;;2.38;;
23658;SDS011;12006;42.666;23.326;2024-02-23T16:24:52;2.35;;;2.15;;
23658;SDS011;12006;42.666;23.326;2024-02-23T16:28:16;2.85;;;2.38;;
23658;SDS011;12006;42.666;23.326;2024-02-23T16:31:40;1.90;;;1.60;;
23658;SDS011;12006;42.666;23.326;2024-02-23T16:35:04;2.38;;;2.17;;
23658;SDS011;12006;42.666;23.326;2024-02-23T16:38:28;2.88;;;2.67;;
23658;SDS011;12006;42.666;23.326;2024-02-23T16:41:52;3.55;;;2.22;;
23658;SDS011;12006;42.666;23.326;2024-02-23T16:45:16;2.60;;;2.40;;
23658;SDS011;12006;42.666;23.326;2024-02-23T16:48:40;2.45;;;2.17;;
23658;SDS011;12006;42.666;23.326;2024-02-23T16:52:05;2.38;;;2.08;;
23658;SDS011;12006;42.666;23.326;2024-02-23T16:55:30;2.40;;;2.15;;
23658;SDS011;12006;42.666;23.326;2024-02-23T16:58:54;2.95;;;2.55;;
23658;SDS011;12006;42.666;23.326;2024-02-23T17:02:17;4.38;;;2.40;;
23658;SDS011;12006;42.666;23.326;2024-02-23T17:05:41;2.25;;;2.05;;
23658;SDS011;12006;42.666;23.326;2024-02-23T17:09:05;3.45;;;2.47;;
23658;SDS011;12006;42.666;23.326;2024-02-23T17:12:30;2.58;;;2.33;;
23658;SDS011;12006;42.666;23.326;2024-02-23T17:15:54;3.35;;;2.92;;
23658;SDS011;12006;42.666;23.326;2024-02-23T17:19:18;3.20;;;2.90;;
23658;SDS011;12006;42.666;23.326;2024-02-23T17:22:43;4.20;;;3.20;;
23658;SDS011;12006;42.666;23.326;2024-02-23T17:26:07;3.50;;;2.63;;
23658;SDS011;12006;42.666;23.326;2024-02-23T17:29:31;3.08;;;2.13;;
23658;SDS011;12006;42.666;23.326;2024-02-23T17:32:55;4.32;;;2.58;;
23658;SDS011;12006;42.666;23.326;2024-02-23T17:36:19;2.80;;;2.53;;
23658;SDS011;12006;42.666;23.326;2024-02-23T17:39:43;4.82;;;3.42;;
23658;SDS011;12006;42.666;23.326;2024-02-23T17:43:07;3.83;;;3.00;;
23658;SDS011;12006;42.666;23.326;2024-02-23T17:46:31;3.73;;;2.50;;
23658;SDS011;12006;42.666;23.326;2024-02-23T17:49:55;4.50;;;2.83;;
23658;SDS011;12006;42.666;23.326;2024-02-23T17:53:19;2.90;;;2.60;;
23658;SDS011;12006;42.666;23.326;2024-02-23T17:56:43;3.00;;;2.63;;
23658;SDS011;12006;42.666;23.326;2024-02-23T18:00:07;2.80;;;2.60;;
23658;SDS011;12006;42.666;23.326;2024-02-23T18:03:31;2.97;;;2.67;;
23658;SDS011;12006;42.666;23.326;2024-02-23T18:06:56;3.30;;;2.30;;
23658;SDS011;12006;42.666;23.326;2024-02-23T18:10:20;2.63;;;2.23;;
23658;SDS011;12006;42.666;23.326;2024-02-23T18:13:45;2.50;;;2.23;;
23658;SDS011;12006;42.666;23.326;2024-02-23T18:17:09;2.95;;;2.15;;
23658;SDS011;12006;42.666;23.326;2024-02-23T18:20:34;2.87;;;2.23;;
23658;SDS011;12006;42.666;23.326;2024-02-23T18:23:58;3.40;;;2.40;;
23658;SDS011;12006;42.666;23.326;2024-02-23T18:27:21;2.70;;;2.00;;
23658;SDS011;12006;42.666;23.326;2024-02-23T18:30:45;3.27;;;2.40;;
23658;SDS011;12006;42.666;23.326;2024-02-23T18:34:10;1.87;;;1.70;;
23658;SDS011;12006;42.666;23.326;2024-02-23T18:37:37;2.93;;;2.33;;
23658;SDS011;12006;42.666;23.326;2024-02-23T18:41:01;3.20;;;2.00;;
23658;SDS011;12006;42.666;23.326;2024-02-23T18:44:25;2.97;;;2.20;;
23658;SDS011;12006;42.666;23.326;2024-02-23T18:47:49;4.10;;;2.97;;
23658;SDS011;12006;42.666;23.326;2024-02-23T18:51:13;2.30;;;2.10;;
23658;SDS011;12006;42.666;23.326;2024-02-23T18:54:36;3.37;;;2.33;;
23658;SDS011;12006;42.666;23.326;2024-02-23T18:58:03;3.13;;;2.30;;
23658;SDS011;12006;42.666;23.326;2024-02-23T19:01:28;2.90;;;2.50;;
23658;SDS011;12006;42.666;23.326;2024-02-23T19:04:52;4.13;;;3.20;;
23658;SDS011;12006;42.666;23.326;2024-02-23T19:08:16;4.05;;;2.47;;
23658;SDS011;12006;42.666;23.326;2024-02-23T19:11:40;3.00;;;2.67;;
23658;SDS011;12006;42.666;23.326;2024-02-23T19:15:06;3.03;;;2.60;;
23658;SDS011;12006;42.666;23.326;2024-02-23T19:18:36;3.10;;;2.47;;
23658;SDS011;12006;42.666;23.326;2024-02-23T19:22:01;2.07;;;1.87;;
23658;SDS011;12006;42.666;23.326;2024-02-23T19:25:25;3.73;;;2.20;;
23658;SDS011;12006;42.666;23.326;2024-02-23T19:28:49;2.70;;;2.50;;
23658;SDS011;12006;42.666;23.326;2024-02-23T19:32:13;2.30;;;2.10;;
23658;SDS011;12006;42.666;23.326;2024-02-23T19:35:38;3.63;;;2.40;;
23658;SDS011;12006;42.666;23.326;2024-02-23T19:39:01;4.13;;;2.38;;
23658;SDS011;12006;42.666;23.326;2024-02-23T19:42:25;2.60;;;2.00;;
23658;SDS011;12006;42.666;23.326;2024-02-23T19:45:52;2.90;;;2.10;;
23658;SDS011;12006;42.666;23.326;2024-02-23T19:49:16;1.60;;;1.50;;
23658;SDS011;12006;42.666;23.326;2024-02-23T19:52:40;3.07;;;2.20;;
23658;SDS011;12006;42.666;23.326;2024-02-23T19:56:04;2.30;;;2.10;;
23658;SDS011;12006;42.666;23.326;2024-02-23T19:59:28;2.17;;;2.00;;
23658;SDS011;12006;42.666;23.326;2024-02-23T20:02:52;2.67;;;2.23;;
23658;SDS011;12006;42.666;23.326;2024-02-23T20:06:16;3.20;;;2.33;;
23658;SDS011;12006;42.666;23.326;2024-02-23T20:09:41;4.53;;;2.83;;
23658;SDS011;12006;42.666;23.326;2024-02-23T20:13:05;2.70;;;2.13;;